Time;durP1;ratioP1;P1;durP2;ratioP2;P2;SDS_P1;SDS_P2;PMS_P1;PMS_P2;Temp;Humidity;BMP_temperature;BMP_pressure;BME280_temperature;BME280_humidity;BME280_pressure;Samples;Min_cycle;Max_cycle;Signal;HPM_P1;HPM_P2
2021/11/05 00:01:07;;;;;;;;;;;16.00;99.90;;;;;;4998588;28;1311;-55
2021/11/05 00:03:33;;;;;;;;;;;16.00;99.90;;;;;;4998544;28;837;-56
2021/11/05 00:05:59;;;;;;;;;;;15.90;99.90;;;;;;4998851;28;1910;-55
2021/11/05 00:08:26;;;;;;;;;;;15.90;99.90;;;;;;4998896;28;846;-56
2021/11/05 00:10:52;;;;;;;;;;;15.90;99.90;;;;;;4998622;28;1017;-55
2021/11/05 00:13:20;;;;;;;;;;;15.80;99.90;;;;;;4998907;28;909;-55
2021/11/05 00:15:46;;;;;;;;;;;15.80;99.90;;;;;;4998554;28;995;-56
2021/11/05 00:18:12;;;;;;;;;;;15.70;99.90;;;;;;4998423;28;906;-55
2021/11/05 00:20:38;;;;;;;;;;;15.70;99.90;;;;;;4998675;28;907;-55
2021/11/05 00:23:05;;;;;;;;;;;15.70;99.90;;;;;;4995540;28;870;-55
2021/11/05 00:25:32;;;;;;;;;;;15.70;99.90;;;;;;4997938;28;1960;-56
2021/11/05 00:27:58;;;;;;;;;;;15.60;99.90;;;;;;4998195;28;913;-55
2021/11/05 00:30:24;;;;;;;;;;;15.60;99.90;;;;;;4994989;28;1355;-55
2021/11/05 00:32:50;;;;;;;;;;;15.60;99.90;;;;;;4998020;28;1191;-55
2021/11/05 00:35:16;;;;;;;;;;;15.60;99.90;;;;;;4998087;28;1030;-55
2021/11/05 00:37:44;;;;;;;;;;;15.50;99.90;;;;;;4997997;28;939;-55
2021/11/05 00:40:11;;;;;;;;;;;15.50;99.90;;;;;;4997977;28;869;-55
2021/11/05 00:42:38;;;;;;;;;;;15.50;99.90;;;;;;4997944;28;1006;-55
2021/11/05 00:45:04;;;;;;;;;;;15.50;99.90;;;;;;4997822;28;839;-55
2021/11/05 00:47:30;;;;;;;;;;;15.40;99.90;;;;;;4997672;28;1902;-55
2021/11/05 00:49:56;;;;;;;;;;;15.40;99.90;;;;;;4995643;28;1738;-55
2021/11/05 00:52:23;;;;;;;;;;;15.40;99.90;;;;;;4997817;28;817;-55
2021/11/05 00:54:51;;;;;;;;;;;15.40;99.90;;;;;;4997553;28;1022;-55
2021/11/05 00:57:17;;;;;;;;;;;15.30;99.90;;;;;;4980090;28;828;-55
2021/11/05 00:59:44;;;;;;;;;;;15.30;99.90;;;;;;4997512;28;1212;-55
2021/11/05 01:02:11;;;;;;;;;;;15.30;99.90;;;;;;4997308;28;1097;-55
2021/11/05 01:04:37;;;;;;;;;;;15.30;99.90;;;;;;4997766;28;935;-55
2021/11/05 01:07:03;;;;;;;;;;;15.30;99.90;;;;;;4997311;28;1910;-56
2021/11/05 01:09:29;;;;;;;;;;;15.20;99.90;;;;;;4997723;28;988;-55
2021/11/05 01:11:56;;;;;;;;;;;15.20;99.90;;;;;;4994504;28;1309;-55
2021/11/05 01:14:22;;;;;;;;;;;15.20;99.90;;;;;;4997375;28;810;-55
2021/11/05 01:16:49;;;;;;;;;;;15.20;99.90;;;;;;4996963;28;929;-55
2021/11/05 01:19:15;;;;;;;;;;;15.20;99.90;;;;;;4997473;28;1022;-55
2021/11/05 01:21:41;;;;;;;;;;;15.20;99.90;;;;;;4996896;28;776;-55
2021/11/05 01:24:07;;;;;;;;;;;15.10;99.90;;;;;;4996949;28;790;-55
2021/11/05 01:26:34;;;;;;;;;;;15.10;99.90;;;;;;4995017;28;1898;-56
2021/11/05 01:29:01;;;;;;;;;;;15.10;99.90;;;;;;4996980;28;863;-55
2021/11/05 01:31:27;;;;;;;;;;;15.10;99.90;;;;;;4996925;28;820;-55
2021/11/05 01:33:53;;;;;;;;;;;15.10;99.90;;;;;;4979111;28;1068;-55
2021/11/05 01:36:19;;;;;;;;;;;15.10;99.90;;;;;;4996655;28;772;-55
2021/11/05 01:38:45;;;;;;;;;;;15.00;99.90;;;;;;4997176;28;905;-55
2021/11/05 01:41:11;;;;;;;;;;;15.00;99.90;;;;;;4997020;28;863;-55
2021/11/05 01:43:37;;;;;;;;;;;15.00;99.90;;;;;;4996331;28;1164;-55
2021/11/05 01:46:08;;;;;;;;;;;15.00;99.90;;;;;;4996841;28;1910;-55
2021/11/05 01:48:36;;;;;;;;;;;15.00;99.90;;;;;;4996881;28;750;-55
2021/11/05 01:51:07;;;;;;;;;;;14.90;99.90;;;;;;4996740;28;766;-56
2021/11/05 01:53:56;;;;;;;;;;;14.90;99.90;;;;;;4954801;28;948;-56
2021/11/05 01:56:22;;;;;;;;;;;14.90;99.90;;;;;;4956794;28;818;-56
2021/11/05 01:59:29;;;;;;;;;;;14.90;99.90;;;;;;4968846;28;801;-56
2021/11/05 02:01:56;;;;;;;;;;;14.90;99.90;;;;;;4952723;28;1191;-55
2021/11/05 02:04:22;;;;;;;;;;;14.80;99.90;;;;;;4956904;28;779;-55
2021/11/05 02:07:13;;;;;;;;;;;14.80;99.90;;;;;;4937063;29;1910;-56
2021/11/05 02:09:52;;;;;;;;;;;14.80;99.90;;;;;;4936241;29;957;-55
2021/11/05 02:12:44;;;;;;;;;;;14.80;99.90;;;;;;4937235;29;928;-56
2021/11/05 02:15:10;;;;;;;;;;;14.80;99.90;;;;;;4936728;29;1140;-55
2021/11/05 02:17:37;;;;;;;;;;;14.80;99.90;;;;;;4936721;29;1033;-55
2021/11/05 02:20:05;;;;;;;;;;;14.80;99.90;;;;;;4937066;29;931;-55
2021/11/05 02:22:31;;;;;;;;;;;14.70;99.90;;;;;;4936284;29;1166;-55
2021/11/05 02:24:57;;;;;;;;;;;14.70;99.90;;;;;;4936993;29;850;-55
2021/11/05 02:27:23;;;;;;;;;;;14.70;99.90;;;;;;4936699;29;1964;-55
2021/11/05 02:29:49;;;;;;;;;;;14.70;99.90;;;;;;4936963;29;791;-55
2021/11/05 02:32:15;;;;;;;;;;;14.70;99.90;;;;;;4936857;29;936;-56
2021/11/05 02:34:41;;;;;;;;;;;14.70;99.90;;;;;;4936692;29;957;-55
2021/11/05 02:37:07;;;;;;;;;;;14.70;99.90;;;;;;4936745;29;886;-55
2021/11/05 02:39:34;;;;;;;;;;;14.60;99.90;;;;;;4936894;29;871;-55
2021/11/05 02:42:00;;;;;;;;;;;14.60;99.90;;;;;;4936708;29;903;-55
2021/11/05 02:44:27;;;;;;;;;;;14.60;99.90;;;;;;4943323;28;1261;-55
2021/11/05 02:46:54;;;;;;;;;;;14.60;99.90;;;;;;4976725;28;1964;-55
2021/11/05 02:49:21;;;;;;;;;;;14.60;99.90;;;;;;4977756;28;909;-55
2021/11/05 02:51:48;;;;;;;;;;;14.60;99.90;;;;;;4998608;28;914;-55
2021/11/05 02:54:14;;;;;;;;;;;14.50;99.90;;;;;;5000039;28;788;-55
2021/11/05 02:56:40;;;;;;;;;;;14.50;99.90;;;;;;5000115;28;1058;-55
2021/11/05 02:59:07;;;;;;;;;;;14.50;99.90;;;;;;5000192;28;894;-58
2021/11/05 03:01:34;;;;;;;;;;;14.50;99.90;;;;;;4999885;28;1564;-55
2021/11/05 03:04:01;;;;;;;;;;;14.50;99.90;;;;;;4999699;28;860;-55
2021/11/05 03:06:32;;;;;;;;;;;14.50;99.90;;;;;;4999802;28;1902;-55
2021/11/05 03:08:58;;;;;;;;;;;14.50;99.90;;;;;;4983448;28;800;-55
2021/11/05 03:11:24;;;;;;;;;;;14.50;99.90;;;;;;4999650;28;1097;-55
2021/11/05 03:13:51;;;;;;;;;;;14.40;99.90;;;;;;4998377;28;983;-55
2021/11/05 03:16:18;;;;;;;;;;;14.40;99.90;;;;;;4999547;28;809;-55
2021/11/05 03:18:44;;;;;;;;;;;14.40;99.90;;;;;;4998464;28;1202;-55
2021/11/05 03:21:10;;;;;;;;;;;14.40;99.90;;;;;;4999480;28;759;-55
2021/11/05 03:23:36;;;;;;;;;;;14.40;99.90;;;;;;4999530;28;774;-55
2021/11/05 03:26:03;;;;;;;;;;;14.40;99.90;;;;;;4999444;28;1961;-55
2021/11/05 03:28:29;;;;;;;;;;;14.40;99.90;;;;;;4999643;28;867;-55
2021/11/05 03:31:00;;;;;;;;;;;14.40;99.90;;;;;;4983589;28;879;-55
2021/11/05 03:33:27;;;;;;;;;;;14.40;99.90;;;;;;4999267;28;827;-55
2021/11/05 03:35:53;;;;;;;;;;;14.30;99.90;;;;;;4999403;28;858;-55
2021/11/05 03:38:19;;;;;;;;;;;14.30;99.90;;;;;;4999143;28;872;-55
2021/11/05 03:40:45;;;;;;;;;;;14.30;99.90;;;;;;4999020;28;822;-55
2021/11/05 03:43:11;;;;;;;;;;;14.30;99.90;;;;;;4995160;28;1051;-55
2021/11/05 03:45:37;;;;;;;;;;;14.30;99.90;;;;;;4999382;28;907;-55
2021/11/05 03:48:04;;;;;;;;;;;14.30;99.90;;;;;;4999018;28;1971;-55
2021/11/05 03:50:30;;;;;;;;;;;14.30;99.90;;;;;;4999257;28;842;-55
2021/11/05 03:52:56;;;;;;;;;;;14.30;99.90;;;;;;4999027;28;911;-55
2021/11/05 03:55:23;;;;;;;;;;;14.30;99.90;;;;;;4997436;28;761;-55
2021/11/05 03:57:49;;;;;;;;;;;14.20;99.90;;;;;;4993384;28;974;-55
2021/11/05 04:00:17;;;;;;;;;;;14.30;99.90;;;;;;4998776;28;802;-55
2021/11/05 04:02:48;;;;;;;;;;;14.20;99.90;;;;;;4965414;28;1268;-55
2021/11/05 04:05:15;;;;;;;;;;;14.20;99.90;;;;;;4994616;28;830;-55
2021/11/05 04:07:41;;;;;;;;;;;14.20;99.90;;;;;;4998577;28;1910;-55
2021/11/05 04:10:08;;;;;;;;;;;14.20;99.90;;;;;;4997984;28;811;-55
2021/11/05 04:12:34;;;;;;;;;;;14.20;99.90;;;;;;4998685;28;877;-56
2021/11/05 04:15:01;;;;;;;;;;;14.20;99.90;;;;;;4998475;28;1030;-55
2021/11/05 04:17:27;;;;;;;;;;;14.20;99.90;;;;;;4993269;28;897;-55
2021/11/05 04:19:53;;;;;;;;;;;14.20;99.90;;;;;;4998274;28;773;-56
2021/11/05 04:22:19;;;;;;;;;;;14.20;99.90;;;;;;4998241;28;909;-56
2021/11/05 04:24:45;;;;;;;;;;;14.20;99.90;;;;;;4998361;28;900;-55
2021/11/05 04:27:11;;;;;;;;;;;14.20;99.90;;;;;;4997796;28;1910;-55
2021/11/05 04:29:38;;;;;;;;;;;14.10;99.90;;;;;;4998181;28;1001;-55
2021/11/05 04:32:04;;;;;;;;;;;14.10;99.90;;;;;;4981869;28;916;-55
2021/11/05 04:34:30;;;;;;;;;;;14.10;99.90;;;;;;4998329;28;927;-55
2021/11/05 04:36:56;;;;;;;;;;;14.10;99.90;;;;;;4998254;28;973;-56
2021/11/05 04:39:24;;;;;;;;;;;14.10;99.90;;;;;;4998096;28;837;-56
2021/11/05 04:41:50;;;;;;;;;;;14.10;99.90;;;;;;4998115;28;890;-55
2021/11/05 04:44:16;;;;;;;;;;;14.00;99.90;;;;;;4994205;28;983;-55
2021/11/05 04:46:43;;;;;;;;;;;14.10;99.90;;;;;;4997964;28;1907;-56
2021/11/05 04:49:09;;;;;;;;;;;14.00;99.90;;;;;;4997938;28;945;-56
2021/11/05 04:51:35;;;;;;;;;;;14.00;99.90;;;;;;4997910;28;766;-56
2021/11/05 04:54:02;;;;;;;;;;;14.00;99.90;;;;;;4997961;28;755;-56
2021/11/05 04:56:28;;;;;;;;;;;14.00;99.90;;;;;;4997847;28;834;-55
2021/11/05 04:58:54;;;;;;;;;;;14.00;99.90;;;;;;4997712;28;847;-56
2021/11/05 05:01:20;;;;;;;;;;;14.00;99.90;;;;;;4997525;28;1223;-56
2021/11/05 05:03:46;;;;;;;;;;;14.00;99.90;;;;;;4997720;28;873;-55
2021/11/05 05:06:13;;;;;;;;;;;14.00;99.90;;;;;;4997842;28;967;-56
2021/11/05 05:08:40;;;;;;;;;;;14.00;99.90;;;;;;4997040;28;1044;-56
2021/11/05 05:11:06;;;;;;;;;;;14.00;99.90;;;;;;4996545;28;853;-55
2021/11/05 05:13:32;;;;;;;;;;;13.90;99.90;;;;;;4995772;28;1300;-56
2021/11/05 05:15:58;;;;;;;;;;;13.90;99.90;;;;;;4997191;28;906;-56
2021/11/05 05:18:25;;;;;;;;;;;13.90;99.90;;;;;;4997119;28;878;-56
2021/11/05 05:20:51;;;;;;;;;;;13.90;99.90;;;;;;4997274;28;838;-55
2021/11/05 05:23:17;;;;;;;;;;;13.90;99.90;;;;;;4997474;28;880;-55
2021/11/05 05:25:43;;;;;;;;;;;13.90;99.90;;;;;;4997112;28;850;-56
2021/11/05 05:28:09;;;;;;;;;;;13.90;99.90;;;;;;4979508;28;1898;-56
2021/11/05 05:30:35;;;;;;;;;;;13.90;99.90;;;;;;4988317;28;1065;-56
2021/11/05 05:33:01;;;;;;;;;;;13.90;99.90;;;;;;4948036;28;991;-56
2021/11/05 05:35:27;;;;;;;;;;;13.90;99.90;;;;;;4997129;28;746;-56
2021/11/05 05:37:54;;;;;;;;;;;13.80;99.90;;;;;;4997097;28;833;-56
2021/11/05 05:40:21;;;;;;;;;;;13.90;99.90;;;;;;4992660;28;926;-56
2021/11/05 05:42:47;;;;;;;;;;;13.80;99.90;;;;;;4996932;28;991;-56
2021/11/05 05:45:13;;;;;;;;;;;13.80;99.90;;;;;;4997128;28;1600;-56
2021/11/05 05:47:40;;;;;;;;;;;13.90;99.90;;;;;;4996718;28;1906;-56
2021/11/05 05:50:07;;;;;;;;;;;13.80;99.90;;;;;;4996560;28;905;-56
2021/11/05 05:52:33;;;;;;;;;;;13.80;99.90;;;;;;4997063;28;868;-56
2021/11/05 05:55:04;;;;;;;;;;;13.80;99.90;;;;;;4996684;28;1034;-56
2021/11/05 05:57:30;;;;;;;;;;;13.80;99.90;;;;;;4978057;28;1207;-55
2021/11/05 05:59:56;;;;;;;;;;;13.80;99.90;;;;;;4996604;28;1130;-56
2021/11/05 06:02:22;;;;;;;;;;;13.80;99.90;;;;;;4996408;28;1193;-56
2021/11/05 06:04:48;;;;;;;;;;;13.90;99.90;;;;;;4995056;28;1562;-56
2021/11/05 06:07:19;;;;;;;;;;;14.00;99.90;;;;;;4994918;28;1965;-56
2021/11/05 06:09:46;;;;;;;;;;;14.00;99.90;;;;;;4978126;28;1332;-56
2021/11/05 06:12:12;;;;;;;;;;;14.10;99.90;;;;;;4996528;28;959;-59
2021/11/05 06:14:38;;;;;;;;;;;14.10;99.90;;;;;;4996591;28;790;-55
2021/11/05 06:17:05;;;;;;;;;;;14.10;99.90;;;;;;4981245;28;895;-55
2021/11/05 06:19:32;;;;;;;;;;;14.20;99.90;;;;;;4996267;28;1233;-56
2021/11/05 06:21:58;;;;;;;;;;;14.20;99.90;;;;;;4996120;28;826;-56
2021/11/05 06:24:24;;;;;;;;;;;14.20;99.90;;;;;;4996614;28;975;-56
2021/11/05 06:26:50;;;;;;;;;;;14.30;99.90;;;;;;4996440;28;1902;-58
2021/11/05 06:29:16;;;;;;;;;;;14.30;99.90;;;;;;4996701;28;1037;-56
2021/11/05 06:31:42;;;;;;;;;;;14.30;99.90;;;;;;4996400;28;804;-56
2021/11/05 06:34:08;;;;;;;;;;;14.30;99.90;;;;;;4995368;28;1392;-56
2021/11/05 06:36:35;;;;;;;;;;;14.30;99.90;;;;;;4951951;28;917;-56
2021/11/05 06:39:02;;;;;;;;;;;14.30;99.90;;;;;;4996663;28;956;-56
2021/11/05 06:41:28;;;;;;;;;;;14.30;99.90;;;;;;4992572;28;895;-56
2021/11/05 06:43:54;;;;;;;;;;;14.30;99.90;;;;;;4996526;28;850;-56
2021/11/05 06:46:21;;;;;;;;;;;14.30;99.90;;;;;;4996077;28;1369;-56
2021/11/05 06:48:49;;;;;;;;;;;14.30;99.90;;;;;;4996013;28;1910;-55
2021/11/05 06:51:15;;;;;;;;;;;14.30;99.90;;;;;;4978108;28;1088;-56
2021/11/05 06:53:41;;;;;;;;;;;14.30;99.90;;;;;;4996114;28;917;-56
2021/11/05 06:56:07;;;;;;;;;;;14.30;99.90;;;;;;4995862;28;869;-56
2021/11/05 06:58:36;;;;;;;;;;;14.30;99.90;;;;;;4996093;28;833;-56
2021/11/05 07:01:05;;;;;;;;;;;14.30;99.90;;;;;;4995806;28;1161;-56
2021/11/05 07:03:32;;;;;;;;;;;14.30;99.90;;;;;;4995630;28;1259;-56
2021/11/05 07:05:58;;;;;;;;;;;14.30;99.90;;;;;;4976908;28;1349;-56
2021/11/05 07:08:25;;;;;;;;;;;14.30;99.90;;;;;;4995959;28;1985;-56
2021/11/05 07:10:52;;;;;;;;;;;14.20;99.90;;;;;;4996055;28;906;-56
2021/11/05 07:13:18;;;;;;;;;;;14.20;99.90;;;;;;4996085;28;847;-56
2021/11/05 07:15:44;;;;;;;;;;;14.20;99.90;;;;;;4995945;28;1040;-56
2021/11/05 07:18:10;;;;;;;;;;;14.20;99.90;;;;;;4995673;28;880;-56
2021/11/05 07:20:36;;;;;;;;;;;14.20;99.90;;;;;;4995223;28;851;-56
2021/11/05 07:23:03;;;;;;;;;;;14.20;99.90;;;;;;4996041;28;931;-56
2021/11/05 07:25:29;;;;;;;;;;;14.20;99.90;;;;;;4995994;28;1027;-56
2021/11/05 07:27:57;;;;;;;;;;;14.20;99.90;;;;;;4995540;28;1902;-56
2021/11/05 07:30:23;;;;;;;;;;;14.20;99.90;;;;;;4995493;28;893;-56
2021/11/05 07:32:51;;;;;;;;;;;14.20;99.90;;;;;;4996505;28;790;-56
2021/11/05 07:35:20;;;;;;;;;;;14.10;99.90;;;;;;4997623;28;1173;-56
2021/11/05 07:37:46;;;;;;;;;;;14.10;99.90;;;;;;4996345;28;1079;-56
2021/11/05 07:40:13;;;;;;;;;;;14.10;99.90;;;;;;4997734;28;1110;-56
2021/11/05 07:42:40;;;;;;;;;;;14.10;99.90;;;;;;4997956;28;1030;-56
2021/11/05 07:45:07;;;;;;;;;;;14.10;99.90;;;;;;4980587;28;1382;-56
2021/11/05 07:47:33;;;;;;;;;;;14.10;99.90;;;;;;4981695;28;1982;-56
2021/11/05 07:50:00;;;;;;;;;;;14.10;99.90;;;;;;4998399;28;1237;-56
2021/11/05 07:52:27;;;;;;;;;;;14.00;99.90;;;;;;4996777;28;1287;-56
2021/11/05 07:54:55;;;;;;;;;;;14.00;99.90;;;;;;4997934;28;1083;-56
2021/11/05 07:57:21;;;;;;;;;;;14.00;99.90;;;;;;4998048;28;1276;-56
2021/11/05 07:59:47;;;;;;;;;;;14.00;99.90;;;;;;4998469;28;1320;-56
2021/11/05 08:02:13;;;;;;;;;;;14.00;99.90;;;;;;5013328;28;1319;-56
2021/11/05 08:04:40;;;;;;;;;;;14.00;99.90;;;;;;4992497;28;1644;-55
2021/11/05 08:07:06;;;;;;;;;;;13.90;99.90;;;;;;5002639;28;1906;-55
2021/11/05 08:09:32;;;;;;;;;;;13.90;99.90;;;;;;5004091;28;1605;-56
2021/11/05 08:11:58;;;;;;;;;;;13.90;99.90;;;;;;5012618;28;1136;-56
2021/11/05 08:14:25;;;;;;;;;;;13.80;99.90;;;;;;5000903;28;1747;-56
2021/11/05 08:16:51;;;;;;;;;;;13.70;99.90;;;;;;5003801;28;988;-56
2021/11/05 08:19:17;;;;;;;;;;;13.70;99.90;;;;;;5011887;28;1110;-56
2021/11/05 08:21:43;;;;;;;;;;;13.80;99.90;;;;;;5001244;28;1410;-56
2021/11/05 08:24:09;;;;;;;;;;;13.90;99.90;;;;;;5003341;28;983;-56
2021/11/05 08:26:35;;;;;;;;;;;14.00;99.90;;;;;;4994887;28;1098;-56
2021/11/05 08:29:03;;;;;;;;;;;14.10;99.90;;;;;;4997659;28;1977;-56
2021/11/05 08:31:29;;;;;;;;;;;14.30;99.90;;;;;;5005978;28;982;-56
2021/11/05 08:33:55;;;;;;;;;;;14.40;99.90;;;;;;5004599;28;979;-56
2021/11/05 08:36:23;;;;;;;;;;;14.60;99.90;;;;;;4998732;28;959;-56
2021/11/05 08:38:49;;;;;;;;;;;14.70;99.90;;;;;;5004713;28;1529;-56
2021/11/05 08:41:18;;;;;;;;;;;14.90;99.90;;;;;;5012146;28;995;-56
2021/11/05 08:43:51;;;;;;;;;;;15.00;99.90;;;;;;5014929;28;975;-56
2021/11/05 08:46:20;;;;;;;;;;;15.10;99.90;;;;;;5015939;28;966;-56
2021/11/05 08:48:51;;;;;;;;;;;15.30;99.90;;;;;;4995638;28;1914;-56
2021/11/05 08:51:17;;;;;;;;;;;15.30;99.90;;;;;;5013545;28;996;-56
2021/11/05 08:53:43;;;;;;;;;;;15.40;99.90;;;;;;5014373;28;1002;-56
2021/11/05 08:56:09;;;;;;;;;;;15.50;99.90;;;;;;5012663;28;1038;-56
2021/11/05 08:58:35;;;;;;;;;;;15.40;99.90;;;;;;5013882;28;1082;-56
2021/11/05 09:01:05;;;;;;;;;;;15.30;99.90;;;;;;4996245;28;1172;-56
2021/11/05 09:03:32;;;;;;;;;;;15.10;99.90;;;;;;4946301;28;1550;-56
2021/11/05 09:05:59;;;;;;;;;;;14.90;99.90;;;;;;4987468;28;1062;-56
2021/11/05 09:08:29;;;;;;;;;;;14.60;99.90;;;;;;4995617;28;1969;-56
2021/11/05 09:10:57;;;;;;;;;;;14.40;99.90;;;;;;4995434;28;1078;-56
2021/11/05 09:13:24;;;;;;;;;;;14.20;99.90;;;;;;4993096;28;1502;-54
2021/11/05 09:15:52;;;;;;;;;;;14.10;99.90;;;;;;4980750;28;995;-56
2021/11/05 09:18:18;;;;;;;;;;;13.90;99.90;;;;;;4996884;28;972;-56
2021/11/05 09:20:44;;;;;;;;;;;13.80;99.90;;;;;;4994324;28;1279;-56
2021/11/05 09:23:10;;;;;;;;;;;13.80;99.90;;;;;;4996994;28;967;-56
2021/11/05 09:25:36;;;;;;;;;;;13.90;99.90;;;;;;4994338;28;975;-56
2021/11/05 09:28:02;;;;;;;;;;;14.20;99.90;;;;;;4993844;28;1910;-56
2021/11/05 09:30:29;;;;;;;;;;;15.10;99.90;;;;;;4956334;28;1400;-56
2021/11/05 09:32:56;;;;;;;;;;;15.90;99.90;;;;;;4995774;28;1018;-56
2021/11/05 09:35:23;;;;;;;;;;;16.70;99.90;;;;;;4994606;28;1307;-56
2021/11/05 09:37:51;;;;;;;;;;;17.30;99.90;;;;;;4992668;28;1137;-57
2021/11/05 09:40:18;;;;;;;;;;;17.60;99.90;;;;;;4994228;28;1030;-57
2021/11/05 09:42:46;;;;;;;;;;;18.00;99.90;;;;;;4993500;28;1113;-56
2021/11/05 09:45:13;;;;;;;;;;;18.10;99.90;;;;;;4989830;28;1135;-56
2021/11/05 09:47:41;;;;;;;;;;;18.30;99.90;;;;;;4989074;28;1902;-56
2021/11/05 09:50:07;;;;;;;;;;;18.60;99.90;;;;;;4995802;28;1227;-56
2021/11/05 09:52:33;;;;;;;;;;;18.80;99.90;;;;;;4994553;28;1101;-56
2021/11/05 09:55:00;;;;;;;;;;;18.90;99.90;;;;;;4992608;28;1124;-56
2021/11/05 09:57:26;;;;;;;;;;;19.00;99.90;;;;;;4948347;28;1255;-56
2021/11/05 09:59:52;;;;;;;;;;;19.20;99.90;;;;;;4983177;28;1389;-56
2021/11/05 10:02:18;;;;;;;;;;;19.30;99.90;;;;;;5004529;28;1094;-56
2021/11/05 10:04:45;;;;;;;;;;;19.50;99.90;;;;;;4991976;28;1136;-56
2021/11/05 10:07:12;;;;;;;;;;;19.50;99.90;;;;;;4996705;28;1918;-60
2021/11/05 10:09:39;;;;;;;;;;;19.60;99.90;;;;;;4996038;28;1074;-56
2021/11/05 10:12:18;;;;;;;;;;;19.70;99.90;;;;;;4991130;28;1525;-56
2021/11/05 10:14:45;;;;;;;;;;;19.30;99.90;;;;;;4996535;28;1254;-55
2021/11/05 10:17:13;;;;;;;;;;;18.80;99.90;;;;;;4998198;28;1106;-55
2021/11/05 10:19:46;;;;;;;;;;;18.50;99.90;;;;;;4997707;28;964;-55
2021/11/05 10:22:32;;;;;;;;;;;18.30;99.90;;;;;;5009135;28;1067;-56
2021/11/05 10:25:17;;;;;;;;;;;18.20;99.90;;;;;;4991290;28;1029;-56
2021/11/05 10:27:43;;;;;;;;;;;18.00;99.90;;;;;;5005005;28;1915;-56
2021/11/05 10:30:09;;;;;;;;;;;18.00;99.90;;;;;;4999483;28;959;-56
2021/11/05 10:32:39;;;;;;;;;;;17.90;99.90;;;;;;5010428;28;1173;-56
2021/11/05 10:35:13;;;;;;;;;;;17.90;99.90;;;;;;5000847;28;975;-56
2021/11/05 10:37:41;;;;;;;;;;;17.90;99.90;;;;;;4988118;28;1591;-56
2021/11/05 10:40:09;;;;;;;;;;;17.80;99.90;;;;;;5007167;28;1050;-56
2021/11/05 10:42:44;;;;;;;;;;;17.80;99.90;;;;;;4997647;28;955;-56
2021/11/05 10:45:13;;;;;;;;;;;17.80;99.90;;;;;;4977646;28;1021;-56
2021/11/05 10:47:58;;;;;;;;;;;17.70;99.90;;;;;;4996178;28;1910;-56
2021/11/05 10:50:29;;;;;;;;;;;17.70;99.90;;;;;;4996541;28;1009;-56
2021/11/05 10:53:01;;;;;;;;;;;17.60;99.90;;;;;;4994299;28;1302;-55
2021/11/05 10:55:40;;;;;;;;;;;17.60;99.90;;;;;;4996851;28;797;-55
2021/11/05 10:58:06;;;;;;;;;;;17.50;99.90;;;;;;4978287;28;936;-55
2021/11/05 11:00:33;;;;;;;;;;;17.40;99.90;;;;;;4995396;28;1016;-55
2021/11/05 11:03:08;;;;;;;;;;;17.40;99.90;;;;;;4996176;28;814;-55
2021/11/05 11:05:35;;;;;;;;;;;17.20;99.90;;;;;;4996150;28;921;-55
2021/11/05 11:08:02;;;;;;;;;;;17.20;99.90;;;;;;4998602;28;1910;-55
2021/11/05 11:10:33;;;;;;;;;;;17.20;99.90;;;;;;5000017;28;791;-55
2021/11/05 11:12:59;;;;;;;;;;;17.20;99.90;;;;;;4999459;28;877;-55
2021/11/05 11:15:36;;;;;;;;;;;17.10;99.90;;;;;;4983343;28;844;-55
2021/11/05 11:18:03;;;;;;;;;;;17.10;99.90;;;;;;4999481;28;852;-55
2021/11/05 11:20:33;;;;;;;;;;;17.10;99.90;;;;;;4999267;28;856;-55
2021/11/05 11:23:00;;;;;;;;;;;17.00;99.90;;;;;;4999530;28;808;-55
2021/11/05 11:25:26;;;;;;;;;;;17.00;99.90;;;;;;4999597;28;913;-56
2021/11/05 11:27:52;;;;;;;;;;;17.00;99.90;;;;;;4999317;28;1906;-55
2021/11/05 11:30:19;;;;;;;;;;;16.90;99.90;;;;;;4982875;28;1124;-55
2021/11/05 11:32:51;;;;;;;;;;;16.90;99.90;;;;;;4998426;28;1121;-55
2021/11/05 11:35:17;;;;;;;;;;;16.90;99.90;;;;;;4999098;28;1054;-55
2021/11/05 11:37:45;;;;;;;;;;;16.80;99.90;;;;;;4999496;28;818;-55
2021/11/05 11:40:11;;;;;;;;;;;16.80;99.90;;;;;;4999600;28;990;-55
2021/11/05 11:42:38;;;;;;;;;;;16.80;99.90;;;;;;4998969;28;865;-55
2021/11/05 11:45:08;;;;;;;;;;;16.70;99.90;;;;;;4998660;28;881;-55
2021/11/05 11:47:41;;;;;;;;;;;16.70;99.90;;;;;;4999291;28;1902;-55
2021/11/05 11:50:26;;;;;;;;;;;16.70;99.90;;;;;;4994396;28;909;-55
2021/11/05 11:53:00;;;;;;;;;;;16.60;99.90;;;;;;4998894;28;947;-55
2021/11/05 11:55:27;;;;;;;;;;;16.60;99.90;;;;;;4999101;28;865;-55
2021/11/05 11:58:09;;;;;;;;;;;16.50;99.90;;;;;;4998757;28;823;-55
2021/11/05 12:00:35;;;;;;;;;;;16.50;99.90;;;;;;4998686;28;1344;-55
2021/11/05 12:03:05;;;;;;;;;;;16.40;99.90;;;;;;4996933;28;778;-55
2021/11/05 12:05:31;;;;;;;;;;;16.40;99.90;;;;;;4996621;28;1424;-55
2021/11/05 12:08:12;;;;;;;;;;;16.40;99.90;;;;;;4998527;28;1981;-55
2021/11/05 12:10:39;;;;;;;;;;;16.30;99.90;;;;;;4998760;28;925;-55
2021/11/05 12:13:23;;;;;;;;;;;16.30;99.90;;;;;;4998527;28;870;-55
2021/11/05 12:16:08;;;;;;;;;;;16.30;99.90;;;;;;4998805;28;987;-55
2021/11/05 12:18:54;;;;;;;;;;;16.20;99.90;;;;;;4995672;28;788;-55
2021/11/05 12:21:20;;;;;;;;;;;16.20;99.90;;;;;;4998112;28;1045;-55
2021/11/05 12:24:06;;;;;;;;;;;16.20;99.90;;;;;;4998446;28;1012;-55
2021/11/05 12:26:44;;;;;;;;;;;16.10;99.90;;;;;;4998317;28;1057;-55
2021/11/05 12:29:11;;;;;;;;;;;16.10;99.90;;;;;;4998391;28;1977;-55
2021/11/05 12:31:43;;;;;;;;;;;16.00;99.90;;;;;;4998177;28;886;-55
2021/11/05 12:34:23;;;;;;;;;;;16.00;99.90;;;;;;4997897;28;1005;-55
2021/11/05 12:36:54;;;;;;;;;;;15.90;99.90;;;;;;4998157;28;936;-55
2021/11/05 12:39:34;;;;;;;;;;;15.90;99.90;;;;;;4981565;28;1318;-55
2021/11/05 12:42:02;;;;;;;;;;;15.90;99.90;;;;;;4995326;28;825;-56
2021/11/05 12:44:58;;;;;;;;;;;15.90;99.90;;;;;;4998009;28;892;-56
2021/11/05 12:47:43;;;;;;;;;;;15.90;99.90;;;;;;4998219;28;803;-56
2021/11/05 12:50:09;;;;;;;;;;;15.90;99.90;;;;;;4998059;28;787;-56
2021/11/05 12:52:35;;;;;;;;;;;15.90;99.90;;;;;;4998042;28;834;-56
2021/11/05 12:55:03;;;;;;;;;;;15.90;99.90;;;;;;4997787;28;831;-56
2021/11/05 12:57:29;;;;;;;;;;;15.80;99.90;;;;;;4995881;28;1441;-56
2021/11/05 12:59:55;;;;;;;;;;;15.80;99.90;;;;;;4997990;28;795;-55
2021/11/05 13:02:22;;;;;;;;;;;15.80;99.90;;;;;;5013222;28;992;-55
2021/11/05 13:04:52;;;;;;;;;;;15.80;99.90;;;;;;5015880;28;893;-55
2021/11/05 13:07:21;;;;;;;;;;;15.70;99.90;;;;;;5016353;28;786;-55
2021/11/05 13:09:48;;;;;;;;;;;15.70;99.90;;;;;;5016242;28;1910;-55
2021/11/05 13:12:18;;;;;;;;;;;15.70;99.90;;;;;;5015578;28;991;-55
2021/11/05 13:14:48;;;;;;;;;;;15.70;99.90;;;;;;5016439;28;781;-55
2021/11/05 13:17:26;;;;;;;;;;;15.70;99.90;;;;;;5015988;28;830;-55
2021/11/05 13:19:53;;;;;;;;;;;15.80;99.90;;;;;;5016236;28;879;-56
2021/11/05 13:22:19;;;;;;;;;;;15.80;99.90;;;;;;5016036;28;855;-56
2021/11/05 13:24:45;;;;;;;;;;;15.80;99.90;;;;;;5016044;28;854;-56
2021/11/05 13:27:11;;;;;;;;;;;15.80;99.90;;;;;;4998121;28;994;-56
2021/11/05 13:29:38;;;;;;;;;;;15.80;99.90;;;;;;5012442;28;1963;-56
2021/11/05 13:32:21;;;;;;;;;;;15.80;99.90;;;;;;4994192;28;1105;-56
2021/11/05 13:34:48;;;;;;;;;;;15.80;99.90;;;;;;5003544;28;1088;-56
2021/11/05 13:37:15;;;;;;;;;;;15.80;99.90;;;;;;4998017;28;1363;-56
2021/11/05 13:39:42;;;;;;;;;;;15.70;99.90;;;;;;5016020;28;855;-56
2021/11/05 13:42:13;;;;;;;;;;;15.70;99.90;;;;;;5016043;28;861;-55
2021/11/05 13:44:39;;;;;;;;;;;15.80;99.90;;;;;;5001048;28;1078;-56
2021/11/05 13:47:12;;;;;;;;;;;15.80;99.90;;;;;;4998869;28;1262;-57
2021/11/05 13:49:38;;;;;;;;;;;15.80;99.90;;;;;;5001163;28;1962;-57
2021/11/05 13:52:09;;;;;;;;;;;15.90;99.90;;;;;;4996360;28;1263;-51
2021/11/05 13:54:45;;;;;;;;;;;15.80;99.90;;;;;;4978676;28;1238;-54
2021/11/05 13:57:15;;;;;;;;;;;15.90;99.90;;;;;;5001075;28;1338;-54
2021/11/05 13:59:41;;;;;;;;;;;15.90;99.90;;;;;;4995463;28;1351;-51
2021/11/05 14:02:07;;;;;;;;;;;16.00;99.90;;;;;;4996335;28;1273;-54
2021/11/05 14:04:34;;;;;;;;;;;16.00;99.90;;;;;;4995489;28;1281;-53
2021/11/05 14:07:08;;;;;;;;;;;16.10;99.90;;;;;;4995320;28;1213;-55
2021/11/05 14:09:34;;;;;;;;;;;16.20;99.90;;;;;;4991868;28;1902;-55
2021/11/05 14:12:03;;;;;;;;;;;16.30;99.90;;;;;;4993452;28;1212;-58
2021/11/05 14:14:30;;;;;;;;;;;16.30;99.90;;;;;;4996166;28;1140;-57
2021/11/05 14:16:57;;;;;;;;;;;16.40;99.90;;;;;;4992815;28;1009;-57
2021/11/05 14:19:25;;;;;;;;;;;16.50;99.90;;;;;;4994430;28;891;-57
2021/11/05 14:21:57;;;;;;;;;;;16.60;99.90;;;;;;4995699;28;1089;-57
2021/11/05 14:24:26;;;;;;;;;;;16.60;99.90;;;;;;4996225;28;882;-57
2021/11/05 14:27:04;;;;;;;;;;;16.60;99.90;;;;;;4996390;28;868;-57
2021/11/05 14:29:34;;;;;;;;;;;16.60;99.90;;;;;;4996118;28;1906;-57
2021/11/05 14:32:05;;;;;;;;;;;16.50;99.90;;;;;;4996341;28;814;-57
2021/11/05 14:34:50;;;;;;;;;;;16.50;99.90;;;;;;4995498;28;767;-57
2021/11/05 14:37:21;;;;;;;;;;;16.40;99.90;;;;;;4996506;28;1008;-57
2021/11/05 14:39:47;;;;;;;;;;;16.40;99.90;;;;;;4996349;28;777;-57
2021/11/05 14:42:26;;;;;;;;;;;16.40;99.90;;;;;;4997732;28;844;-57